createdAt,value
2023-12-18T00:00:55.792Z,97142.00
2023-12-18T00:01:55.622Z,97144.00
2023-12-18T00:02:55.695Z,97142.00
2023-12-18T00:03:55.954Z,97140.00
2023-12-18T00:04:55.716Z,97140.00
2023-12-18T00:05:55.713Z,97140.00
2023-12-18T00:06:55.763Z,97139.00
2023-12-18T00:07:55.752Z,97140.00
2023-12-18T00:08:55.793Z,97138.00
2023-12-18T00:09:55.807Z,97137.00
2023-12-18T00:10:55.802Z,97139.00
2023-12-18T00:11:55.826Z,97139.00
2023-12-18T00:12:55.819Z,97135.00
2023-12-18T00:13:55.902Z,97134.00
2023-12-18T00:14:55.887Z,97133.00
2023-12-18T00:15:55.883Z,97132.00
2023-12-18T00:16:55.950Z,97131.00
2023-12-18T00:17:56.074Z,97132.00
2023-12-18T00:18:56.178Z,97134.00
2023-12-18T00:19:56.020Z,97131.00
2023-12-18T00:20:56.024Z,97131.00
2023-12-18T00:21:56.063Z,97128.00
2023-12-18T00:22:56.133Z,97128.00
2023-12-18T00:23:56.178Z,97127.00
2023-12-18T00:24:56.165Z,97123.00
2023-12-18T00:25:56.209Z,97124.00
2023-12-18T00:26:56.284Z,97121.00
2023-12-18T00:27:56.368Z,97122.00
2023-12-18T00:28:56.333Z,97119.00
2023-12-18T00:29:56.359Z,97120.00
2023-12-18T00:30:56.486Z,97122.00
2023-12-18T00:31:56.449Z,97121.00
2023-12-18T00:32:56.620Z,97120.00
2023-12-18T00:33:56.744Z,97121.00
2023-12-18T00:34:56.726Z,97121.00
2023-12-18T00:35:57.409Z,97119.00
2023-12-18T00:36:56.757Z,97119.00
2023-12-18T00:37:56.806Z,97117.00
2023-12-18T00:38:56.825Z,97117.00
2023-12-18T00:39:56.810Z,97116.00
2023-12-18T00:40:56.886Z,97116.00
2023-12-18T00:41:56.896Z,97114.00
2023-12-18T00:42:56.933Z,97113.00
2023-12-18T00:43:56.975Z,97114.00
2023-12-18T00:44:57.022Z,97119.00
2023-12-18T00:45:57.072Z,97120.00
2023-12-18T00:46:57.062Z,97118.00
2023-12-18T00:47:57.177Z,97120.00
2023-12-18T00:48:57.251Z,97120.00
2023-12-18T00:49:57.375Z,97119.00
2023-12-18T00:50:57.261Z,97119.00
2023-12-18T00:51:57.358Z,97118.00
2023-12-18T00:52:57.402Z,97119.00
2023-12-18T00:53:57.499Z,97119.00
2023-12-18T00:54:57.570Z,97119.00
2023-12-18T00:55:57.623Z,97120.00
2023-12-18T00:56:57.626Z,97119.00
2023-12-18T00:57:57.762Z,97119.00
2023-12-18T00:58:57.756Z,97119.00
2023-12-18T00:59:57.826Z,97119.00
2023-12-18T01:00:57.969Z,97117.00
2023-12-18T01:01:57.970Z,97117.00
2023-12-18T01:02:57.997Z,97119.00
2023-12-18T01:03:58.290Z,97120.00
2023-12-18T01:04:58.139Z,97122.00
2023-12-18T01:05:58.230Z,97123.00
2023-12-18T01:06:58.302Z,97124.00
2023-12-18T01:07:58.324Z,97122.00
2023-12-18T01:08:58.434Z,97124.00
2023-12-18T01:09:58.456Z,97123.00
2023-12-18T01:10:58.520Z,97123.00
2023-12-18T01:11:58.625Z,97121.00
2023-12-18T01:12:58.703Z,97120.00
2023-12-18T01:13:58.768Z,97119.00
2023-12-18T01:14:58.862Z,97119.00
2023-12-18T01:15:58.916Z,97119.00
2023-12-18T01:16:58.982Z,97118.00
2023-12-18T01:17:59.137Z,97120.00
2023-12-18T01:18:59.277Z,97121.00
2023-12-18T01:19:59.166Z,97123.00
2023-12-18T01:20:59.231Z,97122.00
2023-12-18T01:21:59.316Z,97120.00
2023-12-18T01:23:04.363Z,97121.00
2023-12-18T01:24:00.451Z,97124.00
2023-12-18T01:24:59.376Z,97123.00
2023-12-18T01:25:59.376Z,97122.00
2023-12-18T01:26:59.380Z,97125.00
2023-12-18T01:27:59.366Z,97126.00
2023-12-18T01:28:59.394Z,97126.00
2023-12-18T01:29:59.400Z,97127.00
2023-12-18T01:30:59.491Z,97128.00
2023-12-18T01:31:59.391Z,97128.00
2023-12-18T01:32:59.650Z,97128.00
2023-12-18T01:34:00.719Z,97128.00
2023-12-18T01:34:59.604Z,97128.00
2023-12-18T01:35:59.660Z,97127.00
2023-12-18T01:36:59.677Z,97125.00
2023-12-18T01:37:59.852Z,97125.00
2023-12-18T01:38:59.889Z,97127.00
2023-12-18T01:39:59.855Z,97126.00
2023-12-18T01:40:59.911Z,97125.00
2023-12-18T01:41:59.973Z,97124.00
2023-12-18T01:43:00.059Z,97121.00
2023-12-18T01:44:00.112Z,97123.00
2023-12-18T01:45:00.157Z,97120.00
2023-12-18T01:46:00.195Z,97120.00
2023-12-18T01:47:00.224Z,97117.00
2023-12-18T01:48:00.392Z,97117.00
2023-12-18T01:49:00.382Z,97116.00
2023-12-18T01:50:00.381Z,97113.00
2023-12-18T01:51:00.486Z,97111.00
2023-12-18T01:52:00.473Z,97111.00
2023-12-18T01:53:00.561Z,97109.00
2023-12-18T01:54:00.653Z,97107.00
2023-12-18T01:55:00.688Z,97108.00
2023-12-18T01:56:00.738Z,97107.00
2023-12-18T01:57:00.859Z,97107.00
2023-12-18T01:58:00.822Z,97106.00
2023-12-18T01:59:00.896Z,97101.00
2023-12-18T02:00:00.975Z,97099.00
2023-12-18T02:01:01.011Z,97099.00
2023-12-18T02:02:01.048Z,97099.00
2023-12-18T02:03:01.116Z,97099.00
2023-12-18T02:04:01.208Z,97098.00
2023-12-18T02:05:01.273Z,97094.00
2023-12-18T02:06:01.343Z,97095.00
2023-12-18T02:07:02.016Z,97095.00
2023-12-18T02:08:01.352Z,97094.00
2023-12-18T02:09:01.487Z,97093.00
2023-12-18T02:10:01.466Z,97095.00
2023-12-18T02:11:01.486Z,97093.00
2023-12-18T02:12:01.597Z,97093.00
2023-12-18T02:13:01.588Z,97093.00
2023-12-18T02:14:01.638Z,97092.00
2023-12-18T02:15:01.774Z,97093.00
2023-12-18T02:16:01.763Z,97093.00
2023-12-18T02:17:01.749Z,97092.00
2023-12-18T02:18:01.963Z,97093.00
2023-12-18T02:19:02.001Z,97090.00
2023-12-18T02:20:01.984Z,97091.00
2023-12-18T02:21:02.020Z,97092.00
2023-12-18T02:22:02.013Z,97091.00
2023-12-18T02:23:02.056Z,97091.00
2023-12-18T02:24:02.142Z,97090.00
2023-12-18T02:25:02.153Z,97090.00
2023-12-18T02:26:02.219Z,97088.00
2023-12-18T02:27:02.278Z,97085.00
2023-12-18T02:28:02.302Z,97087.00
2023-12-18T02:29:02.352Z,97087.00
2023-12-18T02:30:02.448Z,97088.00
2023-12-18T02:31:02.497Z,97091.00
2023-12-18T02:32:02.482Z,97091.00
2023-12-18T02:33:02.725Z,97091.00
2023-12-18T02:34:02.712Z,97090.00
2023-12-18T02:35:02.749Z,97089.00
2023-12-18T02:36:02.739Z,97090.00
2023-12-18T02:37:02.718Z,97088.00
2023-12-18T02:38:02.813Z,97087.00
2023-12-18T02:39:02.846Z,97087.00
2023-12-18T02:40:02.867Z,97086.00
2023-12-18T02:41:02.905Z,97086.00
2023-12-18T02:42:02.995Z,97084.00
2023-12-18T02:43:03.035Z,97085.00
2023-12-18T02:44:03.096Z,97084.00
2023-12-18T02:45:03.128Z,97084.00
2023-12-18T02:46:03.146Z,97083.00
2023-12-18T02:47:03.212Z,97082.00
2023-12-18T02:48:03.276Z,97082.00
2023-12-18T02:49:03.351Z,97082.00
2023-12-18T02:50:03.325Z,97081.00
2023-12-18T02:51:03.380Z,97080.00
2023-12-18T02:52:03.375Z,97080.00
2023-12-18T02:53:03.441Z,97079.00
2023-12-18T02:54:03.577Z,97082.00
2023-12-18T02:55:03.550Z,97078.00
2023-12-18T02:56:03.571Z,97080.00
2023-12-18T02:57:03.633Z,97079.00
2023-12-18T02:58:03.629Z,97078.00
2023-12-18T02:59:03.689Z,97078.00
2023-12-18T03:00:03.734Z,97078.00
2023-12-18T03:01:03.783Z,97079.00
2023-12-18T03:02:03.832Z,97081.00
2023-12-18T03:03:03.993Z,97082.00
2023-12-18T03:04:04.011Z,97082.00
2023-12-18T03:05:03.978Z,97081.00
2023-12-18T03:06:04.084Z,97082.00
2023-12-18T03:07:04.033Z,97081.00
2023-12-18T03:08:04.065Z,97079.00
2023-12-18T03:09:04.186Z,97079.00
2023-12-18T03:10:04.134Z,97078.00
2023-12-18T03:11:04.203Z,97077.00
2023-12-18T03:12:04.329Z,97077.00
2023-12-18T03:13:04.251Z,97076.00
2023-12-18T03:14:04.303Z,97075.00
2023-12-18T03:15:04.486Z,97075.00
2023-12-18T03:16:04.369Z,97075.00
2023-12-18T03:17:04.435Z,97076.00
2023-12-18T03:18:04.531Z,97074.00
2023-12-18T03:19:04.557Z,97075.00
2023-12-18T03:20:04.560Z,97074.00
2023-12-18T03:21:04.598Z,97076.00
2023-12-18T03:22:04.606Z,97075.00
2023-12-18T03:23:04.676Z,97075.00
2023-12-18T03:24:04.713Z,97075.00
2023-12-18T03:25:04.732Z,97075.00
2023-12-18T03:26:04.785Z,97077.00
2023-12-18T03:27:04.893Z,97078.00
2023-12-18T03:28:04.809Z,97080.00
2023-12-18T03:29:04.930Z,97079.00
2023-12-18T03:30:05.027Z,97082.00
2023-12-18T03:31:05.043Z,97081.00
2023-12-18T03:32:05.023Z,97082.00
2023-12-18T03:33:05.132Z,97083.00
2023-12-18T03:34:05.155Z,97083.00
2023-12-18T03:35:05.124Z,97080.00
2023-12-18T03:36:05.199Z,97082.00
2023-12-18T03:37:05.195Z,97079.00
2023-12-18T03:38:05.268Z,97080.00
2023-12-18T03:39:05.344Z,97079.00
2023-12-18T03:40:05.305Z,97078.00
2023-12-18T03:41:05.368Z,97080.00
2023-12-18T03:42:05.417Z,97079.00
2023-12-18T03:43:05.441Z,97082.00
2023-12-18T03:44:05.481Z,97080.00
2023-12-18T03:45:05.584Z,97079.00
2023-12-18T03:46:05.553Z,97079.00
2023-12-18T03:47:05.614Z,97076.00
2023-12-18T03:48:05.729Z,97077.00
2023-12-18T03:49:05.742Z,97078.00
2023-12-18T03:50:05.721Z,97077.00
2023-12-18T03:51:05.773Z,97076.00
2023-12-18T03:52:05.756Z,97075.00
2023-12-18T03:53:05.817Z,97074.00
2023-12-18T03:54:05.904Z,97074.00
2023-12-18T03:55:05.926Z,97075.00
2023-12-18T03:56:05.936Z,97076.00
2023-12-18T03:57:06.020Z,97075.00
2023-12-18T03:58:06.010Z,97075.00
2023-12-18T03:59:06.113Z,97075.00
2023-12-18T04:00:06.133Z,97074.00
2023-12-18T04:01:06.245Z,97074.00
2023-12-18T04:02:06.173Z,97075.00
2023-12-18T04:03:06.251Z,97074.00
2023-12-18T04:04:06.363Z,97074.00
2023-12-18T04:05:06.250Z,97074.00
2023-12-18T04:06:06.330Z,97075.00
2023-12-18T04:07:06.320Z,97076.00
2023-12-18T04:08:06.409Z,97076.00
2023-12-18T04:09:06.480Z,97073.00
2023-12-18T04:10:06.439Z,97073.00
2023-12-18T04:11:06.480Z,97075.00
2023-12-18T04:12:06.535Z,97075.00
2023-12-18T04:13:06.571Z,97072.00
2023-12-18T04:14:06.613Z,97074.00
2023-12-18T04:15:06.630Z,97073.00
2023-12-18T04:16:06.673Z,97072.00
2023-12-18T04:17:06.699Z,97072.00
2023-12-18T04:18:06.863Z,97073.00
2023-12-18T04:19:06.946Z,97072.00
2023-12-18T04:20:06.849Z,97071.00
2023-12-18T04:21:06.906Z,97073.00
2023-12-18T04:22:06.876Z,97073.00
2023-12-18T04:23:06.930Z,97076.00
2023-12-18T04:24:07.043Z,97076.00
2023-12-18T04:25:07.006Z,97076.00
2023-12-18T04:26:07.053Z,97079.00
2023-12-18T04:27:14.289Z,97076.00
2023-12-18T04:28:14.238Z,97077.00
2023-12-18T04:29:14.295Z,97075.00
2023-12-18T04:30:14.382Z,97079.00
2023-12-18T04:31:21.728Z,97076.00
2023-12-18T04:32:21.603Z,97077.00
2023-12-18T04:33:21.681Z,97073.00
2023-12-18T04:34:21.666Z,97073.00
2023-12-18T04:35:21.620Z,97074.00
2023-12-18T04:36:21.751Z,97072.00
2023-12-18T04:37:21.687Z,97072.00
2023-12-18T04:38:21.607Z,97071.00
2023-12-18T04:39:21.608Z,97072.00
2023-12-18T04:40:21.581Z,97072.00
2023-12-18T04:41:21.606Z,97074.00
2023-12-18T04:42:21.669Z,97074.00
2023-12-18T04:43:21.623Z,97074.00
2023-12-18T04:44:21.634Z,97074.00
2023-12-18T04:45:21.625Z,97075.00
2023-12-18T04:46:21.580Z,97072.00
2023-12-18T04:47:21.609Z,97075.00
2023-12-18T04:48:21.702Z,97073.00
2023-12-18T04:49:21.698Z,97075.00
2023-12-18T04:50:21.622Z,97074.00
2023-12-18T04:51:21.708Z,97072.00
2023-12-18T04:52:21.611Z,97073.00
2023-12-18T04:53:21.588Z,97072.00
2023-12-18T04:54:21.605Z,97071.00
2023-12-18T04:55:21.655Z,97072.00
2023-12-18T04:56:21.700Z,97072.00
2023-12-18T04:57:21.671Z,97074.00
2023-12-18T04:58:21.623Z,97073.00
2023-12-18T04:59:21.643Z,97077.00
2023-12-18T05:00:21.733Z,97077.00
2023-12-18T05:01:21.708Z,97076.00
2023-12-18T05:02:21.629Z,97078.00
2023-12-18T05:03:21.666Z,97078.00
2023-12-18T05:04:21.688Z,97078.00
2023-12-18T05:05:21.628Z,97081.00
2023-12-18T05:06:21.729Z,97083.00
2023-12-18T05:07:21.614Z,97081.00
2023-12-18T05:08:21.647Z,97081.00
2023-12-18T05:09:21.649Z,97083.00
2023-12-18T05:10:21.600Z,97083.00
2023-12-18T05:11:21.602Z,97081.00
2023-12-18T05:12:21.654Z,97081.00
2023-12-18T05:13:21.683Z,97082.00
2023-12-18T05:14:21.696Z,97083.00
2023-12-18T05:15:21.786Z,97084.00
2023-12-18T05:16:21.804Z,97085.00
2023-12-18T05:17:21.786Z,97087.00
2023-12-18T05:18:21.949Z,97084.00
2023-12-18T05:19:21.992Z,97084.00
2023-12-18T05:20:21.972Z,97085.00
2023-12-18T05:21:22.028Z,97084.00
2023-12-18T05:22:22.045Z,97084.00
2023-12-18T05:23:22.113Z,97085.00
2023-12-18T05:24:22.210Z,97084.00
2023-12-18T05:25:22.279Z,97086.00
2023-12-18T05:26:22.324Z,97085.00
2023-12-18T05:27:22.387Z,97085.00
2023-12-18T05:28:22.369Z,97085.00
2023-12-18T05:29:22.415Z,97085.00
2023-12-18T05:30:22.660Z,97084.00
2023-12-18T05:31:22.646Z,97084.00
2023-12-18T05:32:22.588Z,97084.00
2023-12-18T05:33:22.676Z,97085.00
2023-12-18T05:34:22.724Z,97085.00
2023-12-18T05:35:22.703Z,97085.00
2023-12-18T05:36:22.835Z,97087.00
2023-12-18T05:37:22.770Z,97087.00
2023-12-18T05:38:22.841Z,97088.00
2023-12-18T05:39:22.886Z,97088.00
2023-12-18T05:40:22.939Z,97087.00
2023-12-18T05:41:22.948Z,97087.00
2023-12-18T05:42:22.998Z,97088.00
2023-12-18T05:43:23.058Z,97089.00
2023-12-18T05:44:23.103Z,97092.00
2023-12-18T05:45:23.205Z,97093.00
2023-12-18T05:46:23.178Z,97098.00
2023-12-18T05:47:23.272Z,97098.00
2023-12-18T05:48:23.431Z,97096.00
2023-12-18T05:49:23.414Z,97095.00
2023-12-18T05:50:23.421Z,97095.00
2023-12-18T05:51:23.570Z,97093.00
2023-12-18T05:52:23.528Z,97093.00
2023-12-18T05:53:23.543Z,97094.00
2023-12-18T05:54:23.618Z,97093.00
2023-12-18T05:55:23.648Z,97092.00
2023-12-18T05:56:23.700Z,97092.00
2023-12-18T05:57:23.802Z,97094.00
2023-12-18T05:58:23.837Z,97091.00
2023-12-18T05:59:23.875Z,97090.00
2023-12-18T06:00:23.983Z,97092.00
2023-12-18T06:02:52.884Z,97091.00
2023-12-18T06:03:30.218Z,97095.00
2023-12-18T06:04:30.306Z,97095.00
2023-12-18T06:05:30.176Z,97098.00
2023-12-18T06:06:30.320Z,97099.00
2023-12-18T06:07:30.177Z,97097.00
2023-12-18T06:08:30.201Z,97095.00
2023-12-18T06:09:30.221Z,97095.00
2023-12-18T06:10:30.189Z,97094.00
2023-12-18T06:11:30.197Z,97092.00
2023-12-18T06:12:30.262Z,97091.00
2023-12-18T06:13:30.173Z,97092.00
2023-12-18T06:14:30.213Z,97091.00
2023-12-18T06:15:30.236Z,97087.00
2023-12-18T06:16:30.222Z,97089.00
2023-12-18T06:17:30.240Z,97091.00
2023-12-18T06:18:30.410Z,97090.00
2023-12-18T06:19:30.245Z,97088.00
2023-12-18T06:20:30.244Z,97091.00
2023-12-18T06:21:30.210Z,97091.00
2023-12-18T06:22:30.223Z,97094.00
2023-12-18T06:23:30.243Z,97097.00
2023-12-18T06:24:30.308Z,97096.00
2023-12-18T06:25:30.319Z,97098.00
2023-12-18T06:26:30.398Z,97100.00
2023-12-18T06:27:30.416Z,97096.00
2023-12-18T06:28:30.420Z,97097.00
2023-12-18T06:29:30.787Z,97098.00
2023-12-18T06:30:30.567Z,97100.00
2023-12-18T06:31:30.668Z,97096.00
2023-12-18T06:32:30.658Z,97100.00
2023-12-18T06:33:30.779Z,97099.00
2023-12-18T06:34:30.870Z,97100.00
2023-12-18T06:35:30.695Z,97100.00
2023-12-18T06:36:30.778Z,97101.00
2023-12-18T06:37:31.481Z,97100.00
2023-12-18T06:38:30.822Z,97104.00
2023-12-18T06:39:32.198Z,97102.00
2023-12-18T06:40:30.996Z,97105.00
2023-12-18T06:41:30.920Z,97102.00
2023-12-18T06:42:30.981Z,97105.00
2023-12-18T06:43:30.939Z,97105.00
2023-12-18T06:44:31.298Z,97104.00
2023-12-18T06:45:31.111Z,97104.00
2023-12-18T06:48:00.231Z,97108.00
2023-12-18T06:48:37.595Z,97107.00
2023-12-18T06:49:38.002Z,97109.00
2023-12-18T06:50:37.494Z,97108.00
2023-12-18T06:51:37.531Z,97110.00
2023-12-18T06:52:37.433Z,97111.00
2023-12-18T06:53:37.507Z,97111.00
2023-12-18T06:54:37.931Z,97111.00
2023-12-18T06:55:37.491Z,97108.00
2023-12-18T06:56:37.494Z,97106.00
2023-12-18T06:57:37.588Z,97108.00
2023-12-18T06:58:37.476Z,97110.00
2023-12-18T06:59:38.023Z,97109.00
2023-12-18T07:00:40.991Z,97109.00
2023-12-18T07:01:38.802Z,97111.00
2023-12-18T07:02:37.472Z,97114.00
2023-12-18T07:03:37.616Z,97113.00
2023-12-18T07:04:37.585Z,97114.00
2023-12-18T07:05:38.022Z,97116.00
2023-12-18T07:06:37.538Z,97115.00
2023-12-18T07:07:37.587Z,97115.00
2023-12-18T07:08:38.985Z,97118.00
2023-12-18T07:09:37.607Z,97118.00
2023-12-18T07:10:37.898Z,97119.00
2023-12-18T07:11:37.492Z,97119.00
2023-12-18T07:12:37.539Z,97118.00
2023-12-18T07:13:37.553Z,97119.00
2023-12-18T07:14:37.498Z,97118.00
2023-12-18T07:15:37.992Z,97125.00
2023-12-18T07:16:37.538Z,97121.00
2023-12-18T07:17:37.582Z,97121.00
2023-12-18T07:18:37.631Z,97121.00
2023-12-18T07:19:37.521Z,97120.00
2023-12-18T07:20:37.828Z,97120.00
2023-12-18T07:21:37.517Z,97120.00
2023-12-18T07:22:37.521Z,97123.00
2023-12-18T07:23:37.512Z,97121.00
2023-12-18T07:24:37.602Z,97120.00
2023-12-18T07:25:37.865Z,97124.00
2023-12-18T07:26:37.491Z,97120.00
2023-12-18T07:27:37.563Z,97120.00
2023-12-18T07:28:37.515Z,97117.00
2023-12-18T07:29:37.613Z,97118.00
2023-12-18T07:30:39.761Z,97120.00
2023-12-18T07:31:37.882Z,97118.00
2023-12-18T07:32:37.819Z,97118.00
2023-12-18T07:33:37.901Z,97120.00
2023-12-18T07:34:37.861Z,97121.00
2023-12-18T07:35:37.806Z,97122.00
2023-12-18T07:36:37.849Z,97124.00
2023-12-18T07:37:37.810Z,97123.00
2023-12-18T07:38:37.971Z,97126.00
2023-12-18T07:39:38.024Z,97125.00
2023-12-18T07:40:38.552Z,97119.00
2023-12-18T07:41:38.142Z,97119.00
2023-12-18T07:42:38.180Z,97120.00
2023-12-18T07:43:38.250Z,97123.00
2023-12-18T07:44:38.313Z,97122.00
2023-12-18T07:45:38.980Z,97125.00
2023-12-18T07:46:38.436Z,97124.00
2023-12-18T07:47:38.628Z,97124.00
2023-12-18T07:48:38.694Z,97123.00
2023-12-18T07:49:38.847Z,97122.00
2023-12-18T07:50:38.933Z,97121.00
2023-12-18T07:51:38.866Z,97120.00
2023-12-18T07:52:38.951Z,97119.00
2023-12-18T07:53:38.845Z,97120.00
2023-12-18T07:54:38.929Z,97120.00
2023-12-18T07:55:39.434Z,97123.00
2023-12-18T07:56:38.984Z,97122.00
2023-12-18T07:57:39.026Z,97124.00
2023-12-18T07:58:38.966Z,97124.00
2023-12-18T07:59:39.057Z,97121.00
2023-12-18T08:00:39.993Z,97124.00
2023-12-18T08:01:39.036Z,97124.00
2023-12-18T08:02:39.615Z,97125.00
2023-12-18T08:03:39.194Z,97125.00
2023-12-18T08:04:39.013Z,97123.00
2023-12-18T08:05:39.519Z,97123.00
2023-12-18T08:06:39.143Z,97124.00
2023-12-18T08:07:39.087Z,97126.00
2023-12-18T08:08:39.140Z,97125.00
2023-12-18T08:09:39.244Z,97126.00
2023-12-18T08:10:39.130Z,97127.00
2023-12-18T08:11:39.067Z,97124.00
2023-12-18T08:12:39.227Z,97124.00
2023-12-18T08:13:39.789Z,97122.00
2023-12-18T08:14:39.142Z,97120.00
2023-12-18T08:15:39.247Z,97125.00
2023-12-18T08:16:39.317Z,97124.00
2023-12-18T08:17:39.511Z,97126.00
2023-12-18T08:18:39.513Z,97124.00
2023-12-18T08:19:39.428Z,97124.00
2023-12-18T08:20:39.545Z,97122.00
2023-12-18T08:21:39.479Z,97124.00
2023-12-18T08:22:39.612Z,97125.00
2023-12-18T08:23:39.390Z,97124.00
2023-12-18T08:24:39.546Z,97127.00
2023-12-18T08:25:39.922Z,97127.00
2023-12-18T08:26:39.444Z,97127.00
2023-12-18T08:27:39.500Z,97128.00
2023-12-18T08:28:39.485Z,97127.00
2023-12-18T08:29:39.545Z,97123.00
2023-12-18T08:30:39.589Z,97123.00
2023-12-18T08:31:40.037Z,97122.00
2023-12-18T08:32:39.903Z,97121.00
2023-12-18T08:33:39.686Z,97120.00
2023-12-18T08:34:39.728Z,97120.00
2023-12-18T08:35:39.898Z,97120.00
2023-12-18T08:36:39.774Z,97121.00
2023-12-18T08:37:39.740Z,97121.00
2023-12-18T08:38:39.863Z,97119.00
2023-12-18T08:39:39.780Z,97120.00
2023-12-18T08:40:39.938Z,97119.00
2023-12-18T08:41:39.789Z,97113.00
2023-12-18T08:42:39.888Z,97114.00
2023-12-18T08:43:39.796Z,97113.00
2023-12-18T08:44:39.818Z,97108.00
2023-12-18T08:45:39.933Z,97107.00
2023-12-18T08:46:39.839Z,97107.00
2023-12-18T08:47:39.936Z,97106.00
2023-12-18T08:48:40.074Z,97110.00
2023-12-18T08:49:39.985Z,97108.00
2023-12-18T08:50:40.040Z,97110.00
2023-12-18T08:51:40.052Z,97109.00
2023-12-18T08:52:40.207Z,97110.00
2023-12-18T08:53:40.277Z,97109.00
2023-12-18T08:54:40.289Z,97112.00
2023-12-18T08:55:40.339Z,97108.00
2023-12-18T08:56:40.397Z,97107.00
2023-12-18T08:57:40.510Z,97108.00
2023-12-18T08:58:40.533Z,97105.00
2023-12-18T08:59:40.578Z,97103.00
2023-12-18T09:00:40.907Z,97101.00
2023-12-18T09:01:40.701Z,97099.00
2023-12-18T09:02:41.162Z,97097.00
2023-12-18T09:03:40.851Z,97095.00
2023-12-18T09:04:40.949Z,97097.00
2023-12-18T09:05:43.386Z,97097.00
2023-12-18T09:06:41.061Z,97095.00
2023-12-18T09:07:40.936Z,97094.00
2023-12-18T09:08:41.116Z,97095.00
2023-12-18T09:09:41.086Z,97094.00
2023-12-18T09:10:41.028Z,97094.00
2023-12-18T09:11:41.416Z,97093.00
2023-12-18T09:12:41.383Z,97091.00
2023-12-18T09:13:40.933Z,97093.00
2023-12-18T09:14:41.031Z,97092.00
2023-12-18T09:16:41.047Z,97089.00
2023-12-18T09:17:40.968Z,97088.00
2023-12-18T09:18:41.979Z,97085.00
2023-12-18T09:19:41.011Z,97085.00
2023-12-18T09:20:40.990Z,97083.00
2023-12-18T09:21:41.441Z,97082.00
2023-12-18T09:22:41.254Z,97080.00
2023-12-18T09:23:41.110Z,97080.00
2023-12-18T09:24:41.072Z,97081.00
2023-12-18T09:25:41.057Z,97080.00
2023-12-18T09:26:42.093Z,97081.00
2023-12-18T09:27:41.103Z,97075.00
2023-12-18T09:28:41.097Z,97077.00
2023-12-18T09:29:41.030Z,97076.00
2023-12-18T09:30:41.113Z,97073.00
2023-12-18T09:31:41.615Z,97072.00
2023-12-18T09:32:41.494Z,97071.00
2023-12-18T09:33:41.297Z,97068.00
2023-12-18T09:34:41.086Z,97072.00
2023-12-18T09:35:41.023Z,97068.00
2023-12-18T09:36:44.425Z,97068.00
2023-12-18T09:37:40.991Z,97064.00
2023-12-18T09:38:41.077Z,97063.00
2023-12-18T09:39:41.992Z,97060.00
2023-12-18T09:40:41.065Z,97058.00
2023-12-18T09:41:41.432Z,97055.00
2023-12-18T09:42:42.498Z,97053.00
2023-12-18T09:43:41.083Z,97055.00
2023-12-18T09:44:41.034Z,97052.00
2023-12-18T09:45:41.064Z,97052.00
2023-12-18T09:46:41.415Z,97046.00
2023-12-18T09:47:42.129Z,97048.00
2023-12-18T09:48:41.160Z,97044.00
2023-12-18T09:49:41.225Z,97041.00
2023-12-18T09:50:40.980Z,97039.00
2023-12-18T09:51:41.511Z,97036.00
2023-12-18T09:52:41.305Z,97035.00
2023-12-18T09:53:41.018Z,97034.00
2023-12-18T09:54:41.076Z,97032.00
2023-12-18T09:55:41.030Z,97029.00
2023-12-18T09:56:41.047Z,97027.00
2023-12-18T09:57:41.113Z,97028.00
2023-12-18T09:58:41.054Z,97024.00
2023-12-18T09:59:41.129Z,97020.00
2023-12-18T10:00:41.240Z,97019.00
2023-12-18T10:01:41.181Z,97017.00
2023-12-18T10:02:41.382Z,97018.00
2023-12-18T10:03:41.220Z,97015.00
2023-12-18T10:04:41.216Z,97015.00
2023-12-18T10:05:41.258Z,97012.00
2023-12-18T10:06:41.442Z,97012.00
2023-12-18T10:07:41.193Z,97010.00
2023-12-18T10:08:41.258Z,97007.00
2023-12-18T10:09:41.360Z,97006.00
2023-12-18T10:10:41.422Z,97004.00
2023-12-18T10:11:41.477Z,97006.00
2023-12-18T10:12:41.795Z,97002.00
2023-12-18T10:13:41.602Z,97001.00
2023-12-18T10:14:41.668Z,96999.00
2023-12-18T10:15:41.740Z,96996.00
2023-12-18T10:16:41.720Z,96996.00
2023-12-18T10:17:41.697Z,96991.00
2023-12-18T10:18:41.820Z,96989.00
2023-12-18T10:19:41.760Z,96986.00
2023-12-18T10:20:41.700Z,96985.00
2023-12-18T10:21:41.805Z,96981.00
2023-12-18T10:22:42.358Z,96981.00
2023-12-18T10:23:41.861Z,96980.00
2023-12-18T10:24:41.995Z,96979.00
2023-12-18T10:25:41.987Z,96981.00
2023-12-18T10:26:42.057Z,96978.00
2023-12-18T10:27:42.130Z,96977.00
2023-12-18T10:28:42.238Z,96975.00
2023-12-18T10:29:42.215Z,96973.00
2023-12-18T10:30:42.400Z,96972.00
2023-12-18T10:31:42.644Z,96970.00
2023-12-18T10:32:42.785Z,96970.00
2023-12-18T10:33:42.571Z,96971.00
2023-12-18T10:34:42.622Z,96968.00
2023-12-18T10:35:42.614Z,96966.00
2023-12-18T10:36:43.052Z,96965.00
2023-12-18T10:37:42.767Z,96962.00
2023-12-18T10:38:42.792Z,96961.00
2023-12-18T10:39:42.936Z,96960.00
2023-12-18T10:40:42.860Z,96958.00
2023-12-18T10:41:43.957Z,96959.00
2023-12-18T10:42:43.318Z,96957.00
2023-12-18T10:43:43.100Z,96958.00
2023-12-18T10:44:43.185Z,96958.00
2023-12-18T10:45:43.147Z,96952.00
2023-12-18T10:46:43.464Z,96949.00
2023-12-18T10:47:43.229Z,96948.00
2023-12-18T10:48:43.350Z,96942.00
2023-12-18T10:49:43.322Z,96947.00
2023-12-18T10:50:43.360Z,96942.00
2023-12-18T10:51:43.485Z,96941.00
2023-12-18T10:52:43.599Z,96939.00
2023-12-18T10:53:44.386Z,96939.00
2023-12-18T10:54:43.505Z,96938.00
2023-12-18T10:55:43.479Z,96937.00
2023-12-18T10:56:43.588Z,96937.00
2023-12-18T10:57:44.036Z,96936.00
2023-12-18T10:58:44.460Z,96935.00
2023-12-18T10:59:43.862Z,96933.00
2023-12-18T11:00:43.855Z,96929.00
2023-12-18T11:01:43.960Z,96926.00
2023-12-18T11:02:43.920Z,96924.00
2023-12-18T11:03:44.102Z,96918.00
2023-12-18T11:04:44.054Z,96918.00
2023-12-18T11:05:44.183Z,96914.00
2023-12-18T11:06:44.217Z,96915.00
2023-12-18T11:07:44.452Z,96912.00
2023-12-18T11:08:44.229Z,96911.00
2023-12-18T11:09:44.316Z,96911.00
2023-12-18T11:10:45.098Z,96905.00
2023-12-18T11:11:44.518Z,96907.00
2023-12-18T11:12:44.432Z,96905.00
2023-12-18T11:13:44.472Z,96902.00
2023-12-18T11:14:45.655Z,96903.00
2023-12-18T11:15:44.554Z,96901.00
2023-12-18T11:16:44.996Z,96899.00
2023-12-18T11:17:44.831Z,96896.00
2023-12-18T11:18:44.775Z,96898.00
2023-12-18T11:19:44.935Z,96895.00
2023-12-18T11:20:44.866Z,96896.00
2023-12-18T11:21:45.012Z,96892.00
2023-12-18T11:22:44.837Z,96891.00
2023-12-18T11:23:46.440Z,96889.00
2023-12-18T11:24:46.975Z,96887.00
2023-12-18T11:25:45.216Z,96888.00
2023-12-18T11:26:45.423Z,96887.00
2023-12-18T11:27:46.916Z,96887.00
2023-12-18T11:28:45.348Z,96887.00
2023-12-18T11:29:45.357Z,96884.00
2023-12-18T11:30:45.505Z,96881.00
2023-12-18T11:31:46.049Z,96879.00
2023-12-18T11:32:45.915Z,96880.00
2023-12-18T11:33:48.958Z,96875.00
2023-12-18T11:34:45.670Z,96873.00
2023-12-18T11:35:46.542Z,96871.00
2023-12-18T11:36:46.067Z,96871.00
2023-12-18T11:37:45.830Z,96865.00
2023-12-18T11:38:45.612Z,96867.00
2023-12-18T11:39:45.590Z,96863.00
2023-12-18T11:40:45.626Z,96863.00
2023-12-18T11:41:45.753Z,96858.00
2023-12-18T11:42:45.980Z,96856.00
2023-12-18T11:43:45.665Z,96857.00
2023-12-18T11:44:45.610Z,96850.00
2023-12-18T11:45:45.728Z,96853.00
2023-12-18T11:46:45.655Z,96854.00
2023-12-18T11:47:46.049Z,96852.00
2023-12-18T11:48:45.874Z,96850.00